Time;durP1;ratioP1;P1;durP2;ratioP2;P2;SDS_P1;SDS_P2;PMS_P1;PMS_P2;Temp;Humidity;BMP_temperature;BMP_pressure;BME280_temperature;BME280_humidity;BME280_pressure;Samples;Min_cycle;Max_cycle;Signal;HPM_P1;HPM_P2
2021/09/17 00:01:07;;;;;;;8.00;5.63;;;15.70;83.10;;;;;;5066897;28;20032;-67
2021/09/17 00:03:33;;;;;;;7.07;5.97;;;15.70;83.20;;;;;;5068942;28;20035;-67
2021/09/17 00:05:58;;;;;;;12.27;6.65;;;15.70;83.50;;;;;;5070679;28;20041;-66
2021/09/17 00:08:24;;;;;;;9.60;6.60;;;15.70;83.30;;;;;;5069881;28;20058;-67
2021/09/17 00:10:49;;;;;;;9.70;6.75;;;15.70;83.20;;;;;;5069083;28;20094;-68
2021/09/17 00:13:15;;;;;;;7.43;6.63;;;15.70;83.20;;;;;;5067729;28;20058;-67
2021/09/17 00:15:41;;;;;;;11.60;7.18;;;15.70;83.20;;;;;;5068313;28;20028;-67
2021/09/17 00:18:06;;;;;;;7.80;6.57;;;15.70;83.30;;;;;;5071348;28;20020;-66
2021/09/17 00:20:32;;;;;;;9.73;7.05;;;15.70;83.40;;;;;;5068576;28;20100;-66
2021/09/17 00:22:57;;;;;;;9.23;7.35;;;15.70;83.50;;;;;;5070465;28;20032;-67
2021/09/17 00:25:23;;;;;;;9.63;6.93;;;15.70;83.20;;;;;;5070981;28;20470;-67
2021/09/17 00:27:48;;;;;;;9.98;7.18;;;15.70;83.30;;;;;;5069541;28;20032;-67
2021/09/17 00:30:14;;;;;;;12.35;8.20;;;15.70;83.40;;;;;;5068587;28;20033;-67
2021/09/17 00:32:40;;;;;;;8.45;7.00;;;15.70;83.40;;;;;;5069252;28;20489;-67
2021/09/17 00:35:06;;;;;;;7.80;7.00;;;15.70;83.60;;;;;;5069168;28;20052;-66
2021/09/17 00:37:31;;;;;;;9.15;7.35;;;15.70;83.60;;;;;;5068928;28;20035;-67
2021/09/17 00:39:57;;;;;;;10.27;7.03;;;15.70;83.70;;;;;;5070873;28;20021;-67
2021/09/17 00:42:22;;;;;;;8.88;6.90;;;15.70;83.70;;;;;;5068674;28;20478;-67
2021/09/17 00:44:48;;;;;;;8.32;6.38;;;15.70;84.00;;;;;;5068214;28;20120;-67
2021/09/17 00:47:14;;;;;;;9.70;7.45;;;15.70;83.90;;;;;;5069909;28;20051;-67
2021/09/17 00:49:39;;;;;;;8.07;6.30;;;15.70;83.90;;;;;;5069445;28;20036;-67
2021/09/17 00:52:05;;;;;;;9.65;6.53;;;15.70;84.30;;;;;;5068902;28;20033;-67
2021/09/17 00:54:34;;;;;;;7.60;6.32;;;15.70;83.70;;;;;;5067145;28;20040;-67
2021/09/17 00:57:01;;;;;;;12.23;7.82;;;15.70;83.90;;;;;;5070944;28;20485;-67
2021/09/17 00:59:27;;;;;;;8.25;6.30;;;15.80;83.80;;;;;;5072496;28;20032;-67
2021/09/17 01:01:53;;;;;;;9.23;6.88;;;15.80;83.50;;;;;;5073342;28;20021;-66
2021/09/17 01:04:18;;;;;;;8.02;6.25;;;15.90;83.40;;;;;;5074531;28;20025;-67
2021/09/17 01:06:44;;;;;;;6.35;5.72;;;15.90;83.10;;;;;;5072516;28;20505;-66
2021/09/17 01:09:12;;;;;;;10.57;6.88;;;15.90;83.20;;;;;;5074212;28;20037;-67
2021/09/17 01:11:37;;;;;;;9.02;6.20;;;15.80;83.50;;;;;;5072404;28;20067;-67
2021/09/17 01:14:03;;;;;;;5.70;5.15;;;15.80;83.20;;;;;;5071579;28;20066;-66
2021/09/17 01:16:29;;;;;;;8.23;5.35;;;15.70;83.30;;;;;;5069313;28;20024;-67
2021/09/17 01:18:55;;;;;;;6.88;4.90;;;15.70;83.20;;;;;;5072274;28;20564;-66
2021/09/17 01:21:22;;;;;;;6.68;5.13;;;15.80;83.40;;;;;;5072829;28;20151;-66
2021/09/17 01:23:48;;;;;;;7.93;4.93;;;15.70;83.10;;;;;;5073503;28;20073;-66
2021/09/17 01:26:14;;;;;;;10.32;5.43;;;15.70;83.10;;;;;;5073066;28;20495;-66
2021/09/17 01:28:40;;;;;;;4.68;4.28;;;15.80;83.30;;;;;;5071763;28;20100;-67
2021/09/17 01:31:05;;;;;;;7.63;4.75;;;15.80;82.90;;;;;;5071086;28;20111;-66
2021/09/17 01:33:31;;;;;;;7.55;4.53;;;15.80;83.00;;;;;;5074007;28;20107;-66
2021/09/17 01:36:06;;;;;;;8.82;4.95;;;15.70;83.10;;;;;;5071767;28;20060;-66
2021/09/17 01:38:33;;;;;;;7.15;4.32;;;15.70;83.30;;;;;;5072703;28;20036;-66
2021/09/17 01:40:59;;;;;;;5.43;4.65;;;15.70;83.30;;;;;;5070313;28;20031;-66
2021/09/17 01:43:25;;;;;;;5.25;4.38;;;15.70;83.20;;;;;;5072837;28;20040;-67
2021/09/17 01:45:51;;;;;;;5.50;3.90;;;15.70;83.40;;;;;;5071996;28;20043;-66
2021/09/17 01:48:17;;;;;;;8.38;4.45;;;15.70;83.40;;;;;;5072457;28;20115;-66
2021/09/17 01:50:42;;;;;;;7.47;4.07;;;15.70;83.50;;;;;;5069925;28;20024;-66
2021/09/17 01:53:08;;;;;;;10.63;4.72;;;15.70;83.50;;;;;;5071390;28;20570;-66
2021/09/17 01:55:34;;;;;;;5.40;4.55;;;15.60;83.50;;;;;;5073385;28;20078;-67
2021/09/17 01:58:00;;;;;;;9.25;4.30;;;15.60;83.50;;;;;;5071780;28;20035;-67
2021/09/17 02:00:25;;;;;;;9.77;4.40;;;15.70;83.80;;;;;;5071908;28;20033;-67
2021/09/17 02:02:51;;;;;;;7.72;4.10;;;15.70;83.40;;;;;;5072065;28;20031;-67
2021/09/17 02:05:17;;;;;;;6.60;4.07;;;15.80;83.20;;;;;;5069174;28;20135;-67
2021/09/17 02:07:44;;;;;;;7.45;4.32;;;15.70;83.30;;;;;;5070556;28;20106;-66
2021/09/17 02:10:10;;;;;;;9.45;4.47;;;15.70;83.10;;;;;;5066110;28;20029;-66
2021/09/17 02:12:37;;;;;;;4.63;3.70;;;15.60;83.30;;;;;;5053164;28;20560;-66
2021/09/17 02:15:04;;;;;;;4.30;3.90;;;15.70;83.50;;;;;;5064004;28;20074;-67
2021/09/17 02:17:31;;;;;;;10.35;4.60;;;15.70;83.40;;;;;;5062257;28;20024;-67
2021/09/17 02:19:57;;;;;;;11.15;4.32;;;15.70;83.30;;;;;;5071217;28;20059;-67
2021/09/17 02:22:23;;;;;;;5.15;3.45;;;15.60;83.30;;;;;;5070824;28;20059;-66
2021/09/17 02:24:49;;;;;;;6.18;3.35;;;15.60;83.60;;;;;;5073005;28;20075;-66
2021/09/17 02:27:14;;;;;;;6.82;3.80;;;15.60;84.10;;;;;;5070682;28;20036;-66
2021/09/17 02:29:40;;;;;;;10.00;4.07;;;15.70;83.50;;;;;;5070663;28;20036;-66
2021/09/17 02:32:06;;;;;;;5.90;3.65;;;15.70;83.30;;;;;;5070910;28;20033;-66
2021/09/17 02:34:31;;;;;;;4.53;3.90;;;15.80;83.20;;;;;;5070363;28;20043;-66
2021/09/17 02:36:57;;;;;;;7.18;3.70;;;15.80;82.90;;;;;;5070682;28;20028;-67
2021/09/17 02:39:22;;;;;;;7.05;3.50;;;15.70;83.10;;;;;;5071443;28;20442;-67
2021/09/17 02:41:48;;;;;;;8.55;3.63;;;15.70;83.40;;;;;;5072573;28;20383;-66
2021/09/17 02:44:14;;;;;;;6.57;3.70;;;15.70;83.20;;;;;;5071519;28;20103;-66
2021/09/17 02:46:39;;;;;;;4.97;3.50;;;15.70;83.20;;;;;;5070553;28;20029;-68
2021/09/17 02:49:05;;;;;;;5.65;3.58;;;15.70;83.20;;;;;;5070213;28;20413;-67
2021/09/17 02:51:31;;;;;;;7.55;3.40;;;15.70;83.50;;;;;;5072324;28;20036;-67
2021/09/17 02:53:58;;;;;;;5.63;3.38;;;15.60;83.60;;;;;;5071397;28;20036;-67
2021/09/17 02:56:24;;;;;;;5.03;3.10;;;15.70;83.60;;;;;;5070732;28;20626;-67
2021/09/17 02:58:49;;;;;;;5.45;3.30;;;15.60;83.50;;;;;;5071242;28;21678;-66
2021/09/17 03:01:15;;;;;;;6.43;3.53;;;15.70;83.40;;;;;;5070589;28;20055;-67
2021/09/17 03:03:40;;;;;;;4.55;3.25;;;15.60;83.30;;;;;;5071508;28;20025;-66
2021/09/17 03:06:06;;;;;;;13.70;3.85;;;15.60;83.50;;;;;;5070227;28;20041;-66
2021/09/17 03:08:32;;;;;;;5.50;3.80;;;15.60;83.60;;;;;;5070783;28;20383;-66
2021/09/17 03:10:57;;;;;;;6.60;3.70;;;15.70;83.50;;;;;;5069598;28;20036;-67
2021/09/17 03:13:27;;;;;;;14.73;5.80;;;15.70;83.20;;;;;;5068597;28;20024;-66
2021/09/17 03:15:53;;;;;;;22.73;11.98;;;15.60;83.50;;;;;;5050295;28;20058;-66
2021/09/17 03:18:19;;;;;;;9.82;5.32;;;15.60;83.30;;;;;;5064687;28;20095;-66
2021/09/17 03:20:49;;;;;;;18.23;10.63;;;15.70;83.20;;;;;;5069351;28;20024;-66
2021/09/17 03:23:14;;;;;;;5.15;4.00;;;15.70;82.90;;;;;;5069444;28;20044;-66
2021/09/17 03:25:40;;;;;;;11.23;6.45;;;15.80;82.80;;;;;;5071270;28;20040;-67
2021/09/17 03:28:06;;;;;;;15.20;8.05;;;15.80;82.80;;;;;;5070874;28;20394;-66
2021/09/17 03:30:32;;;;;;;12.55;7.22;;;15.80;82.40;;;;;;5069790;28;20063;-66
2021/09/17 03:32:58;;;;;;;8.13;4.53;;;15.80;82.50;;;;;;5070763;28;20063;-66
2021/09/17 03:35:23;;;;;;;35.58;19.40;;;15.90;82.40;;;;;;5069221;28;20017;-66
2021/09/17 03:37:49;;;;;;;9.50;5.38;;;15.90;82.30;;;;;;5051786;28;20032;-66
2021/09/17 03:40:15;;;;;;;10.77;4.80;;;15.80;82.40;;;;;;5066553;28;20539;-67
2021/09/17 03:42:41;;;;;;;7.43;4.18;;;15.70;82.70;;;;;;5071939;28;20025;-66
2021/09/17 03:45:07;;;;;;;15.82;7.63;;;15.70;82.60;;;;;;5069971;28;20099;-67
2021/09/17 03:47:33;;;;;;;8.23;4.70;;;15.70;82.80;;;;;;5085740;22;20047;-70
2021/09/17 03:49:59;;;;;;;9.95;5.88;;;15.70;82.70;;;;;;5069978;28;20504;-69
2021/09/17 03:52:24;;;;;;;8.57;5.43;;;15.70;83.00;;;;;;5071207;28;20054;-69
2021/09/17 03:54:50;;;;;;;12.82;5.80;;;15.70;82.50;;;;;;5071853;28;20051;-68
2021/09/17 03:57:16;;;;;;;11.55;6.22;;;15.70;82.90;;;;;;5070445;28;20035;-67
2021/09/17 03:59:41;;;;;;;10.57;4.78;;;15.70;82.90;;;;;;5049873;28;20017;-69
2021/09/17 04:02:07;;;;;;;7.15;4.63;;;15.70;83.00;;;;;;5050682;28;20089;-67
2021/09/17 04:04:32;;;;;;;6.55;4.47;;;15.60;83.00;;;;;;5050599;28;20029;-68
2021/09/17 04:06:58;;;;;;;9.48;5.28;;;15.70;83.00;;;;;;5047068;28;20296;-67
2021/09/17 04:09:24;;;;;;;11.68;5.82;;;15.60;82.90;;;;;;5051495;28;20656;-68
2021/09/17 04:11:50;;;;;;;7.18;5.30;;;15.60;83.00;;;;;;5049729;28;20086;-69
2021/09/17 04:14:16;;;;;;;6.55;4.38;;;15.60;83.20;;;;;;5041303;28;20120;-68
2021/09/17 04:16:42;;;;;;;7.25;4.88;;;15.70;82.90;;;;;;5043221;28;20034;-68
2021/09/17 04:19:07;;;;;;;9.02;5.13;;;15.90;82.90;;;;;;5034048;28;20025;-68
2021/09/17 04:21:33;;;;;;;8.32;5.75;;;15.90;82.00;;;;;;5042071;28;20027;-68
2021/09/17 04:23:59;;;;;;;7.78;6.10;;;15.90;82.00;;;;;;5050354;28;20029;-68
2021/09/17 04:26:24;;;;;;;8.48;5.55;;;15.90;82.00;;;;;;5046682;28;20112;-68
2021/09/17 04:28:51;;;;;;;10.60;5.97;;;15.80;82.30;;;;;;5048829;28;20497;-68
2021/09/17 04:31:16;;;;;;;9.38;6.47;;;15.70;82.40;;;;;;5048986;28;20082;-69
2021/09/17 04:33:42;;;;;;;9.57;5.18;;;15.80;82.30;;;;;;5052516;28;20470;-68
2021/09/17 04:36:08;;;;;;;10.25;6.15;;;15.70;82.50;;;;;;5053957;28;20029;-69
2021/09/17 04:38:33;;;;;;;6.78;4.88;;;15.70;82.40;;;;;;5053232;28;20048;-69
2021/09/17 04:40:59;;;;;;;9.32;5.95;;;15.60;82.70;;;;;;5052568;28;20021;-68
2021/09/17 04:43:27;;;;;;;9.07;5.47;;;15.80;82.20;;;;;;5051341;28;20517;-69
2021/09/17 04:45:52;;;;;;;9.80;6.80;;;15.80;82.20;;;;;;5051926;28;20029;-69
2021/09/17 04:48:18;;;;;;;11.90;6.18;;;15.70;82.00;;;;;;5056347;28;20032;-68
2021/09/17 04:50:44;;;;;;;7.78;6.18;;;15.80;82.00;;;;;;5051814;28;20036;-68
2021/09/17 04:53:10;;;;;;;7.10;5.00;;;15.70;81.60;;;;;;5053619;28;20024;-68
2021/09/17 04:55:36;;;;;;;9.45;6.35;;;15.70;81.80;;;;;;5053027;28;20025;-67
2021/09/17 04:58:07;;;;;;;8.07;6.00;;;15.80;81.60;;;;;;5053376;28;20021;-67
2021/09/17 05:00:34;;;;;;;7.88;6.13;;;15.80;81.60;;;;;;5052584;28;20025;-68
2021/09/17 05:03:00;;;;;;;10.63;5.88;;;15.80;81.90;;;;;;5052301;28;20033;-68
2021/09/17 05:05:26;;;;;;;9.85;5.82;;;15.70;81.80;;;;;;5051460;28;20391;-68
2021/09/17 05:07:52;;;;;;;11.15;6.40;;;15.80;81.60;;;;;;5053424;28;20494;-68
2021/09/17 05:10:17;;;;;;;10.50;6.07;;;15.90;81.20;;;;;;5051108;28;20025;-69
2021/09/17 05:12:43;;;;;;;10.32;6.40;;;16.00;80.90;;;;;;5051744;28;20395;-68
2021/09/17 05:15:09;;;;;;;9.20;4.85;;;16.00;80.90;;;;;;5051571;28;20028;-68
2021/09/17 05:17:35;;;;;;;8.95;5.55;;;15.90;81.30;;;;;;5050265;28;20479;-70
2021/09/17 05:20:00;;;;;;;15.15;7.22;;;15.90;81.20;;;;;;5052078;28;20031;-69
2021/09/17 05:22:26;;;;;;;9.73;5.65;;;16.00;81.30;;;;;;5049360;28;20033;-69
2021/09/17 05:24:52;;;;;;;8.10;5.78;;;16.10;81.10;;;;;;5051141;28;20053;-70
2021/09/17 05:27:19;;;;;;;10.75;6.53;;;16.10;80.70;;;;;;5052826;28;20040;-69
2021/09/17 05:29:45;;;;;;;9.77;6.03;;;16.20;79.90;;;;;;5050927;28;20025;-69
2021/09/17 05:32:11;;;;;;;8.60;5.30;;;16.10;80.30;;;;;;5050814;28;20675;-67
2021/09/17 05:34:37;;;;;;;8.52;5.45;;;16.10;80.60;;;;;;5052268;28;20182;-69
2021/09/17 05:37:04;;;;;;;11.07;6.65;;;16.20;80.50;;;;;;5051995;28;20032;-67
2021/09/17 05:39:29;;;;;;;8.90;4.97;;;16.20;80.10;;;;;;5054012;28;20029;-68
2021/09/17 05:41:55;;;;;;;5.63;5.03;;;16.20;80.30;;;;;;5050759;28;20122;-69
2021/09/17 05:44:20;;;;;;;10.32;5.25;;;16.30;79.80;;;;;;5053320;28;20389;-68
2021/09/17 05:46:46;;;;;;;8.02;6.10;;;16.40;79.70;;;;;;5051788;28;20028;-69
2021/09/17 05:49:12;;;;;;;6.78;5.35;;;16.40;78.90;;;;;;5053053;28;20036;-68
2021/09/17 05:51:38;;;;;;;12.27;4.88;;;16.40;79.10;;;;;;5052215;28;20486;-66
2021/09/17 05:54:04;;;;;;;7.78;4.95;;;16.50;78.60;;;;;;5053382;28;20417;-68
2021/09/17 05:56:30;;;;;;;5.82;3.78;;;16.40;78.50;;;;;;5054518;28;20463;-69
2021/09/17 05:58:55;;;;;;;6.07;4.90;;;16.50;79.10;;;;;;5044699;28;20037;-69
2021/09/17 06:01:21;;;;;;;6.00;4.85;;;16.60;77.80;;;;;;5050063;28;20458;-68
2021/09/17 06:03:47;;;;;;;8.93;4.93;;;16.60;77.60;;;;;;5049411;28;20036;-68
2021/09/17 06:06:12;;;;;;;6.47;4.50;;;16.70;77.30;;;;;;5051492;28;20056;-68
2021/09/17 06:08:38;;;;;;;7.35;4.45;;;16.80;76.90;;;;;;5068157;28;20021;-68
2021/09/17 06:11:06;;;;;;;5.60;3.97;;;16.90;76.40;;;;;;5051952;28;20031;-69
2021/09/17 06:13:32;;;;;;;9.43;4.68;;;16.80;76.30;;;;;;5051341;28;20029;-69
2021/09/17 06:15:57;;;;;;;10.60;4.50;;;16.80;76.60;;;;;;5049183;28;20386;-69
2021/09/17 06:18:24;;;;;;;7.63;4.43;;;16.90;76.80;;;;;;5043858;28;20387;-68
2021/09/17 06:20:49;;;;;;;7.45;4.43;;;17.00;75.80;;;;;;5051830;28;20021;-70
2021/09/17 06:23:15;;;;;;;7.60;4.88;;;16.90;75.60;;;;;;5052302;28;20027;-69
2021/09/17 06:25:40;;;;;;;5.55;3.38;;;17.00;75.50;;;;;;5050937;28;20025;-69
2021/09/17 06:28:07;;;;;;;5.68;3.70;;;17.10;75.40;;;;;;5049042;28;20021;-68
2021/09/17 06:30:32;;;;;;;6.28;3.70;;;17.10;75.20;;;;;;5049153;28;20039;-67
2021/09/17 06:32:58;;;;;;;6.43;3.63;;;17.20;74.80;;;;;;5047259;28;20124;-68
2021/09/17 06:35:24;;;;;;;7.85;3.42;;;17.10;75.00;;;;;;5048053;28;20075;-68
2021/09/17 06:37:52;;;;;;;7.95;3.53;;;17.20;75.00;;;;;;5049405;28;20028;-70
2021/09/17 06:40:19;;;;;;;11.32;3.78;;;17.00;74.40;;;;;;5052237;28;20043;-67
2021/09/17 06:42:45;;;;;;;6.32;3.45;;;17.10;75.70;;;;;;5053473;28;20028;-68
2021/09/17 06:45:11;;;;;;;7.63;3.60;;;17.30;73.90;;;;;;5054370;28;20513;-68
2021/09/17 06:47:44;;;;;;;6.32;3.25;;;17.30;74.30;;;;;;5050499;28;20474;-68
2021/09/17 06:50:10;;;;;;;6.68;3.50;;;17.20;75.00;;;;;;5051144;28;20060;-68
2021/09/17 06:52:36;;;;;;;7.75;3.28;;;17.20;74.20;;;;;;5049692;28;20025;-68
2021/09/17 06:55:01;;;;;;;4.40;3.28;;;17.00;74.60;;;;;;5031537;28;20025;-68
2021/09/17 06:57:27;;;;;;;7.20;3.30;;;17.00;75.30;;;;;;5051629;28;20025;-68
2021/09/17 06:59:53;;;;;;;8.32;3.40;;;17.00;75.90;;;;;;5051543;28;20025;-68
2021/09/17 07:02:18;;;;;;;8.30;4.03;;;16.90;75.50;;;;;;5050059;28;20059;-67
2021/09/17 07:04:45;;;;;;;3.70;2.95;;;17.00;75.60;;;;;;5041522;28;20029;-68
2021/09/17 07:07:10;;;;;;;6.10;3.35;;;17.10;74.70;;;;;;5047779;28;20116;-68
2021/09/17 07:09:36;;;;;;;4.78;3.13;;;17.00;74.90;;;;;;5048114;28;20031;-69
2021/09/17 07:12:02;;;;;;;6.47;3.72;;;17.00;74.60;;;;;;5048673;28;20481;-70
2021/09/17 07:14:27;;;;;;;3.78;2.90;;;17.00;74.80;;;;;;5059194;28;20030;-69
2021/09/17 07:16:53;;;;;;;8.30;2.55;;;17.00;74.30;;;;;;5046257;28;20033;-69
2021/09/17 07:19:18;;;;;;;6.22;3.42;;;17.00;73.80;;;;;;5046239;28;20029;-69
2021/09/17 07:21:44;;;;;;;7.43;2.88;;;17.10;74.90;;;;;;5051421;28;20530;-69
2021/09/17 07:24:10;;;;;;;8.82;2.65;;;17.30;73.60;;;;;;5047278;28;20495;-68
2021/09/17 07:26:35;;;;;;;6.97;3.20;;;17.40;73.70;;;;;;5047221;28;20048;-69
2021/09/17 07:29:01;;;;;;;6.65;2.90;;;17.50;72.10;;;;;;5049152;28;20375;-69
2021/09/17 07:31:26;;;;;;;4.85;3.03;;;17.70;72.70;;;;;;5045933;28;20033;-69
2021/09/17 07:33:52;;;;;;;10.65;3.03;;;17.90;71.40;;;;;;5044528;28;20070;-68
2021/09/17 07:36:17;;;;;;;5.40;3.03;;;18.00;71.30;;;;;;5047328;28;20021;-69
2021/09/17 07:38:43;;;;;;;6.70;2.55;;;18.10;70.50;;;;;;5050230;28;20036;-69
2021/09/17 07:41:08;;;;;;;8.07;2.83;;;18.30;70.80;;;;;;5047548;28;20095;-68
2021/09/17 07:43:34;;;;;;;4.68;2.10;;;18.50;70.40;;;;;;5048072;28;20119;-70
2021/09/17 07:45:59;;;;;;;4.05;2.03;;;18.50;69.50;;;;;;5044415;28;20047;-68
2021/09/17 07:48:25;;;;;;;6.85;2.30;;;18.60;69.20;;;;;;5044168;28;20090;-69
2021/09/17 07:50:51;;;;;;;2.85;2.13;;;18.70;69.50;;;;;;5045540;28;20615;-69
2021/09/17 07:53:16;;;;;;;3.70;2.47;;;18.90;68.50;;;;;;5046257;28;20033;-69
2021/09/17 07:55:42;;;;;;;3.45;2.40;;;19.00;68.30;;;;;;5048892;28;20025;-69
2021/09/17 07:58:07;;;;;;;4.90;2.60;;;19.10;70.70;;;;;;5044638;28;20025;-68
2021/09/17 08:00:33;;;;;;;4.65;3.20;;;18.60;73.00;;;;;;5045666;28;20025;-69
2021/09/17 08:02:59;;;;;;;5.65;3.38;;;18.20;76.00;;;;;;5044525;28;20041;-68
2021/09/17 08:05:24;;;;;;;5.50;3.17;;;17.90;76.90;;;;;;5055193;28;20029;-68
2021/09/17 08:07:53;;;;;;;3.88;3.55;;;17.70;78.70;;;;;;5053014;28;20115;-68
2021/09/17 08:10:18;;;;;;;9.13;3.90;;;17.90;78.80;;;;;;5050308;28;20028;-73
2021/09/17 08:12:44;;;;;;;5.13;3.15;;;18.00;78.10;;;;;;5052513;28;20021;-70
2021/09/17 08:15:13;;;;;;;3.90;3.20;;;18.20;76.00;;;;;;5049807;28;20024;-68
2021/09/17 08:17:38;;;;;;;5.85;3.45;;;18.60;74.70;;;;;;5050660;28;20045;-67
2021/09/17 08:20:06;;;;;;;8.32;3.45;;;18.80;73.70;;;;;;5051969;28;20029;-68
2021/09/17 08:22:31;;;;;;;4.93;3.28;;;19.00;72.30;;;;;;5049968;28;20055;-68
2021/09/17 08:24:57;;;;;;;5.57;2.97;;;19.00;72.30;;;;;;5049264;28;20110;-67
2021/09/17 08:27:22;;;;;;;4.53;2.42;;;18.80;70.00;;;;;;5047847;28;20029;-71
2021/09/17 08:29:48;;;;;;;3.78;2.78;;;19.00;69.60;;;;;;5053561;28;20132;-70
2021/09/17 08:32:13;;;;;;;5.82;2.38;;;19.00;70.90;;;;;;5052300;28;20490;-70
2021/09/17 08:34:39;;;;;;;4.78;2.38;;;19.00;69.90;;;;;;5051355;28;20036;-70
2021/09/17 08:37:08;;;;;;;6.60;2.60;;;18.90;70.40;;;;;;5048272;28;20064;-73
2021/09/17 08:39:36;;;;;;;2.38;1.85;;;19.20;70.00;;;;;;5048063;28;20394;-68
2021/09/17 08:42:03;;;;;;;13.57;9.75;;;19.30;68.60;;;;;;5040111;28;20018;-68
2021/09/17 08:44:29;;;;;;;13.40;7.47;;;19.40;69.30;;;;;;5048236;28;20179;-68
2021/09/17 08:46:55;;;;;;;42.60;27.30;;;19.40;69.50;;;;;;5046363;28;20105;-68
2021/09/17 08:49:24;;;;;;;15.15;9.77;;;19.50;68.20;;;;;;5050574;28;20033;-68
2021/09/17 08:51:51;;;;;;;4.13;1.85;;;19.60;70.00;;;;;;5054325;28;20404;-67
2021/09/17 08:54:16;;;;;;;5.55;1.95;;;19.80;67.30;;;;;;5052918;28;20086;-65
2021/09/17 08:56:42;;;;;;;1.90;1.67;;;20.10;66.40;;;;;;5054129;28;20025;-65
2021/09/17 08:59:07;;;;;;;2.42;1.42;;;20.40;64.50;;;;;;5053864;28;20029;-66
2021/09/17 09:01:36;;;;;;;1.52;1.42;;;20.30;64.10;;;;;;5053374;28;20021;-66
2021/09/17 09:04:07;;;;;;;2.83;1.75;;;20.20;64.60;;;;;;5042636;28;20024;-66
2021/09/17 09:06:38;;;;;;;2.40;2.07;;;20.00;65.80;;;;;;5054541;28;20021;-66
2021/09/17 09:09:13;;;;;;;3.35;2.10;;;19.70;66.90;;;;;;5054076;28;20078;-66
2021/09/17 09:11:39;;;;;;;4.68;3.25;;;19.40;72.00;;;;;;5053944;28;20086;-66
2021/09/17 09:14:05;;;;;;;3.10;2.67;;;18.80;76.10;;;;;;5052252;28;20024;-66
2021/09/17 09:16:32;;;;;;;3.70;2.85;;;18.10;78.10;;;;;;5053341;28;20486;-68
2021/09/17 09:19:14;;;;;;;2.92;2.60;;;17.70;80.30;;;;;;5051841;28;20402;-67
2021/09/17 09:21:39;;;;;;;3.80;2.33;;;17.60;81.20;;;;;;5052965;28;20078;-69
2021/09/17 09:24:17;;;;;;;2.45;2.25;;;17.60;81.30;;;;;;5052799;28;20120;-67
2021/09/17 09:26:45;;;;;;;2.25;1.92;;;17.60;80.10;;;;;;5053757;28;20020;-67
2021/09/17 09:29:28;;;;;;;3.65;1.80;;;17.60;78.80;;;;;;5052949;28;20036;-66
2021/09/17 09:31:54;;;;;;;2.67;1.40;;;18.00;76.40;;;;;;5053753;28;20498;-66
2021/09/17 09:34:21;;;;;;;1.88;1.35;;;18.60;74.40;;;;;;5053768;28;20021;-67
2021/09/17 09:36:47;;;;;;;2.70;1.50;;;19.10;70.60;;;;;;5053716;28;20424;-67
2021/09/17 09:39:13;;;;;;;2.42;1.48;;;19.50;68.40;;;;;;5053422;28;20371;-67
2021/09/17 09:41:39;;;;;;;2.33;1.30;;;19.80;67.50;;;;;;5053749;28;20387;-68
2021/09/17 09:44:13;;;;;;;2.65;1.58;;;20.00;65.90;;;;;;5052555;28;20021;-67
2021/09/17 09:46:41;;;;;;;2.40;1.17;;;20.20;65.30;;;;;;5053638;28;20029;-67
2021/09/17 09:49:11;;;;;;;2.85;1.58;;;20.10;63.90;;;;;;5074954;22;20045;-65
2021/09/17 09:51:40;;;;;;;2.80;1.40;;;20.20;65.00;;;;;;5053523;28;20021;-65
2021/09/17 09:54:07;;;;;;;4.18;1.65;;;20.30;63.10;;;;;;5053480;28;20033;-66
2021/09/17 09:56:35;;;;;;;3.30;1.23;;;20.40;64.00;;;;;;5052775;28;20576;-67
2021/09/17 09:59:04;;;;;;;3.58;1.30;;;20.70;63.30;;;;;;5052675;28;20060;-65
2021/09/17 10:01:32;;;;;;;5.10;1.23;;;20.80;62.60;;;;;;5053561;28;20021;-65
2021/09/17 10:03:58;;;;;;;2.78;1.20;;;20.80;62.50;;;;;;5053478;28;20079;-66
2021/09/17 10:06:25;;;;;;;1.65;1.08;;;20.80;62.10;;;;;;5052880;28;20476;-66
2021/09/17 10:08:54;;;;;;;3.30;1.13;;;20.70;61.60;;;;;;5053011;28;20024;-66
2021/09/17 10:11:22;;;;;;;2.33;1.40;;;20.60;61.60;;;;;;5035013;28;20033;-66
2021/09/17 10:13:49;;;;;;;3.97;1.50;;;20.60;61.70;;;;;;5053069;28;20025;-66
2021/09/17 10:16:16;;;;;;;2.33;0.90;;;20.70;60.30;;;;;;5052966;28;20140;-66
2021/09/17 10:18:44;;;;;;;1.45;0.65;;;21.00;59.40;;;;;;5052035;28;20021;-65
2021/09/17 10:21:13;;;;;;;1.02;0.50;;;21.00;58.20;;;;;;5032908;28;20078;-65
2021/09/17 10:23:43;;;;;;;0.73;0.63;;;21.10;57.80;;;;;;5052925;28;20095;-65
2021/09/17 10:26:11;;;;;;;2.22;0.90;;;21.10;59.10;;;;;;5053054;28;20075;-65
2021/09/17 10:29:08;;;;;;;0.95;0.60;;;20.90;59.10;;;;;;5040128;28;20039;-66
2021/09/17 10:31:45;;;;;;;3.70;0.90;;;20.60;57.80;;;;;;5039114;28;20116;-66
2021/09/17 10:34:30;;;;;;;1.35;0.77;;;20.40;59.30;;;;;;5051231;28;20075;-66
2021/09/17 10:36:56;;;;;;;3.08;1.30;;;20.00;60.70;;;;;;5052655;28;20032;-66
2021/09/17 10:39:22;;;;;;;3.65;1.05;;;19.80;61.30;;;;;;5033210;28;20398;-66
2021/09/17 10:42:10;;;;;;;3.45;1.15;;;19.50;63.30;;;;;;5034549;28;20048;-66
2021/09/17 10:45:00;;;;;;;2.47;1.17;;;19.50;63.10;;;;;;5052652;28;20028;-66
2021/09/17 10:47:41;;;;;;;1.70;1.33;;;19.50;63.30;;;;;;5052368;28;20021;-66
2021/09/17 10:50:08;;;;;;;1.07;0.77;;;19.60;62.80;;;;;;5033195;28;20132;-66
2021/09/17 10:52:38;;;;;;;3.15;1.30;;;19.70;62.70;;;;;;5052465;28;20267;-66
2021/09/17 10:55:05;;;;;;;3.20;1.40;;;19.70;62.10;;;;;;5052010;28;20398;-66
2021/09/17 10:57:30;;;;;;;2.45;1.05;;;19.60;63.20;;;;;;5052004;28;20033;-64
2021/09/17 10:59:56;;;;;;;1.73;1.20;;;19.60;63.30;;;;;;5051687;28;20037;-65
2021/09/17 11:02:41;;;;;;;2.80;1.10;;;19.50;63.10;;;;;;5051815;28;20029;-65
2021/09/17 11:05:17;;;;;;;3.90;0.95;;;19.40;63.20;;;;;;5052309;28;20021;-67
2021/09/17 11:07:43;;;;;;;5.40;1.52;;;19.40;63.80;;;;;;5052211;28;20052;-66
2021/09/17 11:10:24;;;;;;;1.50;1.20;;;19.40;63.60;;;;;;5051425;28;20020;-66
2021/09/17 11:12:50;;;;;;;;;;;19.50;63.60;;;;;;5034229;28;20035;-67
2021/09/17 11:15:22;;;;;;;2.83;1.08;;;19.60;62.70;;;;;;5051966;28;19905;-67
2021/09/17 11:17:56;;;;;;;2.08;1.02;;;19.60;62.80;;;;;;5032398;28;20048;-66
2021/09/17 11:20:25;;;;;;;2.50;1.13;;;19.70;62.30;;;;;;5051304;28;20070;-66
2021/09/17 11:23:07;;;;;;;2.42;1.00;;;19.90;62.70;;;;;;5051410;28;20041;-67
2021/09/17 11:25:34;;;;;;;2.03;0.80;;;20.00;61.80;;;;;;5051790;28;20104;-67
2021/09/17 11:28:02;;;;;;;3.00;1.10;;;20.00;61.70;;;;;;5051282;28;20164;-67
2021/09/17 11:30:30;;;;;;;2.20;0.80;;;20.10;60.50;;;;;;5051539;28;20025;-66
2021/09/17 11:32:55;;;;;;;3.35;0.93;;;20.20;59.80;;;;;;5051644;28;20033;-67
2021/09/17 11:35:21;;;;;;;2.83;0.52;;;20.30;59.60;;;;;;5051527;28;20551;-66
2021/09/17 11:37:53;;;;;;;3.38;1.10;;;20.40;59.80;;;;;;5051358;28;20021;-67
2021/09/17 11:40:19;;;;;;;6.38;1.00;;;20.40;59.20;;;;;;5050903;28;20025;-66
2021/09/17 11:42:45;;;;;;;1.70;0.80;;;20.50;59.40;;;;;;5050992;28;20585;-67
2021/09/17 11:45:13;;;;;;;2.45;1.00;;;20.60;59.20;;;;;;5033374;28;20761;-67
2021/09/17 11:47:39;;;;;;;2.47;0.85;;;20.80;58.50;;;;;;5051527;28;20560;-66
2021/09/17 11:50:15;;;;;;;3.92;1.15;;;20.90;57.80;;;;;;5051074;28;20084;-66
2021/09/17 11:52:44;;;;;;;2.97;0.88;;;21.00;58.60;;;;;;5051465;28;20045;-65
2021/09/17 11:55:13;;;;;;;1.00;0.52;;;20.90;58.10;;;;;;5051292;28;20413;-66
2021/09/17 11:57:41;;;;;;;1.67;0.70;;;20.80;58.40;;;;;;5051394;28;20026;-66
2021/09/17 12:00:18;;;;;;;3.13;1.17;;;20.80;58.70;;;;;;5050331;28;20390;-66
2021/09/17 12:02:45;;;;;;;2.58;1.02;;;20.70;58.50;;;;;;5050405;28;20537;-66
2021/09/17 12:05:19;;;;;;;3.03;1.25;;;20.30;59.90;;;;;;5033165;28;20044;-66
2021/09/17 12:07:48;;;;;;;2.15;0.90;;;20.40;60.10;;;;;;5051080;28;20041;-66
2021/09/17 12:10:34;;;;;;;2.30;0.88;;;20.10;60.50;;;;;;5050811;28;20049;-67
2021/09/17 12:13:04;;;;;;;1.52;1.00;;;20.40;60.20;;;;;;5027136;28;20083;-66
2021/09/17 12:15:38;;;;;;;2.47;1.60;;;20.40;60.20;;;;;;5032634;28;20108;-66
2021/09/17 12:18:18;;;;;;;4.10;1.73;;;20.40;59.60;;;;;;5050889;28;20017;-73
2021/09/17 12:20:55;;;;;;;174.60;157.20;;;20.20;60.30;;;;;;5048981;28;20501;-70
2021/09/17 12:23:33;;;;;;;24.25;20.67;;;20.10;61.00;;;;;;5031495;28;20120;-67
2021/09/17 12:26:18;;;;;;;8.77;2.72;;;20.00;62.10;;;;;;5042221;28;20038;-67
2021/09/17 12:28:49;;;;;;;7.95;2.20;;;19.80;62.50;;;;;;5040091;28;20041;-66
2021/09/17 12:31:38;;;;;;;2.37;1.57;;;19.50;62.50;;;;;;5046204;28;20112;-66
2021/09/17 12:34:16;;;;;;;2.72;1.30;;;19.20;65.70;;;;;;5055547;28;20025;-69
2021/09/17 12:36:46;;;;;;;4.53;2.20;;;18.90;67.40;;;;;;5049075;28;20021;-70
2021/09/17 12:39:12;;;;;;;4.20;1.90;;;18.80;67.70;;;;;;5056517;28;20024;-70
2021/09/17 12:41:38;;;;;;;2.30;1.58;;;18.90;67.70;;;;;;5055180;28;20263;-68
2021/09/17 12:44:10;;;;;;;11.75;1.95;;;19.00;67.00;;;;;;5035181;28;20063;-69
2021/09/17 12:46:47;;;;;;;3.92;2.83;;;19.20;67.10;;;;;;5049684;28;20025;-68